Time;durP1;ratioP1;P1;durP2;ratioP2;P2;SDS_P1;SDS_P2;PMS_P1;PMS_P2;Temp;Humidity;BMP_temperature;BMP_pressure;BME280_temperature;BME280_humidity;BME280_pressure;Samples;Min_cycle;Max_cycle;Signal;HPM_P1;HPM_P2
2023/05/20 00:00:00;;;;;;;19.20;8.83;;;12.10;12.60;;;;;;4899070;29;20608;-62
2023/05/20 00:02:30;;;;;;;15.60;9.17;;;12.10;16.10;;;;;;4895739;29;20596;-62
2023/05/20 00:04:58;;;;;;;15.93;8.70;;;12.10;21.30;;;;;;4897881;29;20246;-62
2023/05/20 00:07:27;;;;;;;20.33;10.10;;;12.00;21.80;;;;;;4898804;29;20830;-62
2023/05/20 00:09:55;;;;;;;13.80;8.60;;;12.00;19.60;;;;;;4898284;29;20228;-62
2023/05/20 00:12:23;;;;;;;15.47;9.43;;;12.00;22.70;;;;;;4898781;29;20233;-62
2023/05/20 00:14:51;;;;;;;20.30;9.30;;;12.00;33.00;;;;;;4898331;29;20191;-62
2023/05/20 00:17:24;;;;;;;15.47;8.90;;;12.00;35.40;;;;;;4898293;29;20194;-62
2023/05/20 00:19:54;;;;;;;21.13;9.20;;;11.90;36.80;;;;;;4898467;29;20277;-63
2023/05/20 00:22:22;;;;;;;21.70;10.03;;;11.90;33.30;;;;;;4898970;29;20199;-63
2023/05/20 00:24:51;;;;;;;15.50;8.87;;;11.80;41.00;;;;;;4898333;29;20669;-62
2023/05/20 00:27:19;;;;;;;21.03;10.30;;;11.80;43.00;;;;;;4898995;29;20205;-62
2023/05/20 00:29:47;;;;;;;17.80;9.80;;;11.80;51.30;;;;;;4898432;29;20205;-62
2023/05/20 00:32:15;;;;;;;32.53;10.13;;;11.80;48.40;;;;;;4898558;29;20209;-62
2023/05/20 00:34:44;;;;;;;15.90;9.77;;;11.70;49.30;;;;;;4894049;29;20269;-62
2023/05/20 00:37:13;;;;;;;17.67;10.07;;;11.70;55.10;;;;;;4898275;29;20198;-62
2023/05/20 00:39:42;;;;;;;16.87;10.23;;;11.70;59.60;;;;;;4898349;29;20206;-62
2023/05/20 00:42:10;;;;;;;30.90;11.53;;;11.70;60.00;;;;;;4898173;29;20549;-62
2023/05/20 00:44:38;;;;;;;19.53;10.50;;;11.60;64.80;;;;;;4896527;29;20198;-62
2023/05/20 00:47:06;;;;;;;15.83;9.90;;;11.60;66.10;;;;;;4898694;29;20676;-62
2023/05/20 00:49:35;;;;;;;26.03;11.10;;;11.60;64.60;;;;;;4898986;29;20198;-62
2023/05/20 00:52:03;;;;;;;15.27;9.93;;;11.60;75.10;;;;;;4905646;29;20221;-62
2023/05/20 00:54:33;;;;;;;16.07;10.67;;;11.50;66.60;;;;;;4898387;29;20622;-62
2023/05/20 00:57:02;;;;;;;19.77;10.87;;;11.50;75.20;;;;;;4895760;29;20194;-62
2023/05/20 00:59:30;;;;;;;23.73;11.37;;;11.40;79.20;;;;;;4897582;29;20198;-62
2023/05/20 01:01:59;;;;;;;16.07;10.23;;;11.40;83.60;;;;;;4894209;29;20929;-62
2023/05/20 01:04:28;;;;;;;18.80;10.10;;;11.40;88.30;;;;;;4898237;29;20805;-62
2023/05/20 01:06:56;;;;;;;16.33;10.70;;;11.30;88.30;;;;;;4897721;29;20210;-62
2023/05/20 01:09:25;;;;;;;19.07;10.50;;;11.30;90.50;;;;;;4897968;29;20232;-62
2023/05/20 01:12:01;;;;;;;19.47;10.70;;;11.30;91.80;;;;;;4897389;29;20213;-62
2023/05/20 01:14:32;;;;;;;17.13;10.10;;;11.30;91.50;;;;;;4898144;29;20193;-62
2023/05/20 01:17:08;;;;;;;21.53;10.93;;;11.30;92.10;;;;;;4897908;29;20190;-62
2023/05/20 01:19:41;;;;;;;19.17;10.73;;;11.30;90.50;;;;;;4897976;29;20209;-62
2023/05/20 01:22:11;;;;;;;18.27;11.30;;;11.20;91.40;;;;;;4898346;29;20201;-62
2023/05/20 01:24:43;;;;;;;18.83;10.90;;;11.20;92.70;;;;;;4897653;29;20204;-63
2023/05/20 01:27:12;;;;;;;17.63;10.20;;;11.20;96.30;;;;;;4898170;29;20242;-62
2023/05/20 01:29:42;;;;;;;19.90;10.37;;;11.10;94.90;;;;;;4898105;29;20194;-62
2023/05/20 01:32:15;;;;;;;16.37;10.90;;;11.10;97.40;;;;;;4897922;29;20221;-62
2023/05/20 01:34:44;;;;;;;17.00;10.40;;;11.10;98.10;;;;;;4897363;29;20217;-63
2023/05/20 01:37:13;;;;;;;14.73;10.03;;;11.10;97.80;;;;;;4896328;29;20242;-61
2023/05/20 01:39:44;;;;;;;15.17;10.83;;;11.00;94.50;;;;;;4897873;29;20198;-62
2023/05/20 01:42:13;;;;;;;20.40;10.93;;;11.00;96.20;;;;;;4897461;29;20201;-62
2023/05/20 01:44:42;;;;;;;22.53;10.60;;;11.00;96.30;;;;;;4897761;29;20198;-62
2023/05/20 01:47:10;;;;;;;15.40;10.57;;;10.90;94.70;;;;;;4886180;29;20756;-62
2023/05/20 01:49:38;;;;;;;18.67;10.37;;;10.90;93.40;;;;;;4897785;29;20205;-62
2023/05/20 01:52:07;;;;;;;21.63;10.77;;;10.90;94.60;;;;;;4897513;29;20230;-61
2023/05/20 01:54:35;;;;;;;14.93;9.80;;;10.90;95.90;;;;;;4897204;29;20233;-61
2023/05/20 01:57:05;;;;;;;16.17;10.60;;;10.80;93.50;;;;;;4900456;29;20203;-62
2023/05/20 01:59:33;;;;;;;17.90;10.03;;;10.80;90.00;;;;;;4900307;29;20202;-62
2023/05/20 02:02:02;;;;;;;17.13;10.50;;;10.80;87.20;;;;;;4897319;29;20205;-62
2023/05/20 02:04:30;;;;;;;14.50;9.50;;;10.80;85.40;;;;;;4886734;29;20207;-61
2023/05/20 02:06:58;;;;;;;13.50;9.43;;;10.70;80.10;;;;;;4897759;29;20197;-62
2023/05/20 02:09:26;;;;;;;15.93;9.93;;;10.70;83.50;;;;;;4897624;29;20545;-62
2023/05/20 02:11:54;;;;;;;12.33;9.13;;;10.70;81.90;;;;;;4899624;29;20245;-61
2023/05/20 02:14:24;;;;;;;15.20;9.60;;;10.70;77.20;;;;;;4904665;29;20197;-61
2023/05/20 02:16:53;;;;;;;10.53;8.60;;;10.70;78.50;;;;;;4901030;29;20522;-62
2023/05/20 02:19:22;;;;;;;11.53;8.40;;;10.60;68.40;;;;;;4898725;29;20237;-62
2023/05/20 02:21:51;;;;;;;13.90;9.33;;;10.60;67.90;;;;;;4901149;29;20671;-62
2023/05/20 02:24:20;;;;;;;12.07;8.77;;;10.60;76.60;;;;;;4889319;29;20198;-62
2023/05/20 02:26:49;;;;;;;14.57;8.70;;;10.60;85.40;;;;;;4901317;29;20209;-62
2023/05/20 02:29:20;;;;;;;10.67;8.53;;;10.60;77.40;;;;;;4901009;29;20217;-62
2023/05/20 02:31:50;;;;;;;10.00;7.87;;;10.50;70.90;;;;;;4899561;29;20732;-62
2023/05/20 02:34:19;;;;;;;16.43;8.63;;;10.50;66.60;;;;;;4900905;29;20214;-61
2023/05/20 02:36:47;;;;;;;12.97;8.33;;;10.50;65.80;;;;;;4900996;29;20202;-62
2023/05/20 02:39:16;;;;;;;13.87;8.40;;;10.50;61.40;;;;;;4900842;29;20210;-62
2023/05/20 02:41:44;;;;;;;11.93;8.27;;;10.40;61.00;;;;;;4902533;29;20198;-62
2023/05/20 02:44:12;;;;;;;11.53;7.73;;;10.40;71.30;;;;;;4900907;29;20190;-62
2023/05/20 02:46:41;;;;;;;12.63;7.90;;;10.40;72.70;;;;;;4900670;29;20202;-62
2023/05/20 02:49:10;;;;;;;14.57;7.63;;;10.40;80.00;;;;;;4900928;29;20283;-62
2023/05/20 02:51:40;;;;;;;16.13;7.83;;;10.30;73.20;;;;;;4901142;29;20225;-62
2023/05/20 02:54:08;;;;;;;12.13;7.67;;;10.30;63.30;;;;;;4900258;29;20324;-61
2023/05/20 02:56:36;;;;;;;9.20;7.37;;;10.30;59.20;;;;;;4898993;29;20205;-61
2023/05/20 02:59:06;;;;;;;10.30;8.00;;;10.30;69.70;;;;;;4900691;29;20199;-62
2023/05/20 03:01:34;;;;;;;10.17;7.33;;;10.30;80.60;;;;;;4900783;29;20198;-62
2023/05/20 03:04:03;;;;;;;12.20;7.57;;;10.30;80.90;;;;;;4901024;29;20246;-62
2023/05/20 03:06:33;;;;;;;11.87;7.77;;;10.30;80.70;;;;;;4900846;29;20681;-62
2023/05/20 03:09:01;;;;;;;10.33;7.10;;;10.30;90.30;;;;;;4900289;29;20202;-62
2023/05/20 03:11:29;;;;;;;10.40;7.03;;;10.20;80.10;;;;;;4900382;29;20560;-62
2023/05/20 03:13:57;;;;;;;11.20;6.73;;;10.20;63.30;;;;;;4900293;29;20226;-61
2023/05/20 03:16:26;;;;;;;14.00;7.70;;;10.20;59.70;;;;;;4888152;29;20205;-63
2023/05/20 03:18:55;;;;;;;9.10;6.97;;;10.20;70.70;;;;;;4900599;29;20194;-62
2023/05/20 03:21:24;;;;;;;10.80;6.90;;;10.10;58.90;;;;;;4899235;29;20297;-61
2023/05/20 03:23:54;;;;;;;10.40;7.37;;;10.10;55.00;;;;;;4899140;29;20285;-61
2023/05/20 03:26:24;;;;;;;9.43;7.23;;;10.00;52.80;;;;;;4900262;29;20538;-63
2023/05/20 03:28:52;;;;;;;9.23;6.90;;;10.00;62.70;;;;;;4900427;29;20247;-62
2023/05/20 03:31:21;;;;;;;11.00;6.93;;;10.00;60.50;;;;;;4887308;29;20210;-62
2023/05/20 03:33:49;;;;;;;11.17;7.10;;;10.00;66.80;;;;;;4899968;29;20618;-62
2023/05/20 03:36:17;;;;;;;10.70;7.20;;;10.00;65.70;;;;;;4900040;29;20202;-62
2023/05/20 03:38:46;;;;;;;15.30;7.73;;;10.00;63.50;;;;;;4899935;29;20205;-62
2023/05/20 03:41:15;;;;;;;14.57;7.97;;;9.90;69.70;;;;;;4900228;29;20202;-62
2023/05/20 03:43:43;;;;;;;9.67;7.17;;;9.90;73.90;;;;;;4900941;29;20198;-62
2023/05/20 03:46:12;;;;;;;8.57;7.33;;;9.90;81.20;;;;;;4899753;29;20202;-62
2023/05/20 03:48:40;;;;;;;11.07;7.73;;;9.90;87.10;;;;;;4900245;29;20190;-62
2023/05/20 03:51:08;;;;;;;14.43;8.23;;;9.90;89.60;;;;;;4899668;29;20205;-62
2023/05/20 03:53:37;;;;;;;9.40;7.47;;;9.90;87.30;;;;;;4899567;29;20213;-61
2023/05/20 03:56:05;;;;;;;11.80;8.00;;;9.90;91.60;;;;;;4899828;29;20260;-62
2023/05/20 03:58:37;;;;;;;13.80;7.83;;;10.00;95.20;;;;;;4899673;29;20616;-62
2023/05/20 04:01:06;;;;;;;15.00;7.47;;;9.90;92.80;;;;;;4899835;29;20507;-61
2023/05/20 04:03:34;;;;;;;16.57;7.93;;;9.90;87.80;;;;;;4899843;29;20668;-61
2023/05/20 04:06:02;;;;;;;15.43;7.30;;;9.90;88.50;;;;;;4899847;29;20261;-62
2023/05/20 04:08:31;;;;;;;10.90;7.97;;;9.90;83.00;;;;;;4899451;29;20205;-61
2023/05/20 04:10:59;;;;;;;10.90;7.40;;;9.80;78.20;;;;;;4899881;29;20198;-63
2023/05/20 04:13:28;;;;;;;16.10;7.27;;;9.80;82.40;;;;;;4898910;29;20232;-62
2023/05/20 04:15:57;;;;;;;13.20;8.20;;;9.90;88.70;;;;;;4899006;29;20526;-62
2023/05/20 04:18:28;;;;;;;9.60;7.63;;;9.90;86.40;;;;;;4888889;29;20190;-62
2023/05/20 04:20:57;;;;;;;12.33;7.60;;;9.90;83.70;;;;;;4899367;29;20186;-62
2023/05/20 04:23:26;;;;;;;8.80;7.30;;;9.90;82.70;;;;;;4891713;29;20190;-62
2023/05/20 04:25:54;;;;;;;9.30;7.33;;;9.80;81.80;;;;;;4908046;29;20605;-62
2023/05/20 04:28:26;;;;;;;9.53;7.67;;;9.90;86.90;;;;;;4899057;29;20198;-62
2023/05/20 04:31:01;;;;;;;12.00;8.23;;;9.90;85.30;;;;;;4899558;29;20629;-61
2023/05/20 04:33:31;;;;;;;11.10;7.67;;;9.90;83.80;;;;;;4898974;29;20189;-61
2023/05/20 04:36:00;;;;;;;12.33;7.83;;;9.90;87.00;;;;;;4899000;29;20653;-62
2023/05/20 04:38:29;;;;;;;11.13;7.67;;;9.90;84.80;;;;;;4899228;29;20297;-62
2023/05/20 04:40:57;;;;;;;12.60;7.43;;;9.90;86.40;;;;;;4899274;29;20201;-62
2023/05/20 04:43:28;;;;;;;12.07;8.23;;;10.00;89.40;;;;;;4899201;29;20198;-62
2023/05/20 04:46:00;;;;;;;10.13;7.50;;;10.10;90.40;;;;;;4899148;29;20187;-62
2023/05/20 04:48:28;;;;;;;14.57;8.47;;;10.10;89.50;;;;;;4898895;29;20206;-62
2023/05/20 04:50:56;;;;;;;11.40;7.70;;;10.20;91.80;;;;;;4899001;29;20202;-62
2023/05/20 04:53:25;;;;;;;8.77;7.57;;;10.30;92.40;;;;;;4915823;29;20215;-62
2023/05/20 04:55:55;;;;;;;14.20;8.13;;;10.30;90.70;;;;;;4898643;29;20249;-62
2023/05/20 04:58:24;;;;;;;10.27;7.60;;;10.30;87.40;;;;;;4899074;29;20277;-62
2023/05/20 05:00:52;;;;;;;9.33;7.73;;;10.40;87.00;;;;;;4898868;29;20782;-62
2023/05/20 05:03:22;;;;;;;12.00;8.33;;;10.50;80.10;;;;;;4898689;29;20194;-62
2023/05/20 05:05:50;;;;;;;11.23;7.70;;;10.60;72.50;;;;;;4898551;29;20205;-62
2023/05/20 05:08:19;;;;;;;12.57;7.53;;;10.70;64.70;;;;;;4898725;29;20210;-62
2023/05/20 05:10:47;;;;;;;13.13;7.57;;;10.80;59.50;;;;;;4898716;29;20194;-62
2023/05/20 05:13:15;;;;;;;10.93;7.50;;;10.90;55.50;;;;;;4898033;29;20190;-62
2023/05/20 05:15:44;;;;;;;14.23;7.63;;;11.00;47.70;;;;;;4898458;29;20206;-62
2023/05/20 05:18:12;;;;;;;15.23;7.90;;;11.20;54.90;;;;;;4898466;29;20198;-62
2023/05/20 05:20:41;;;;;;;13.03;7.33;;;11.30;48.90;;;;;;4898531;29;20209;-62
2023/05/20 05:23:10;;;;;;;9.10;7.23;;;11.40;39.20;;;;;;4898088;29;20218;-63
2023/05/20 05:25:38;;;;;;;10.00;7.27;;;11.50;28.70;;;;;;4898420;29;20541;-62
2023/05/20 05:28:06;;;;;;;9.10;6.73;;;11.60;20.40;;;;;;4896245;29;20557;-62
2023/05/20 05:30:36;;;;;;;12.30;6.60;;;11.60;14.80;;;;;;4897129;29;20203;-63
2023/05/20 05:33:04;;;;;;;9.93;7.07;;;11.70;2.20;;;;;;4885211;29;20190;-62
2023/05/20 05:35:33;;;;;;;12.83;7.17;;;11.80;1.00;;;;;;4895469;29;20305;-62
2023/05/20 05:38:03;;;;;;;9.77;7.00;;;11.80;2.00;;;;;;4898142;29;20212;-63
2023/05/20 05:40:31;;;;;;;12.27;6.23;;;11.90;1.00;;;;;;4897526;29;20206;-62
2023/05/20 05:42:59;;;;;;;13.13;7.17;;;11.90;1.00;;;;;;4897900;29;20198;-63
2023/05/20 05:45:28;;;;;;;9.93;6.47;;;11.90;1.00;;;;;;4897364;29;20195;-62
2023/05/20 05:47:56;;;;;;;10.40;6.87;;;12.00;1.00;;;;;;4886978;29;20202;-62
2023/05/20 05:50:25;;;;;;;10.53;6.43;;;12.10;1.00;;;;;;4897717;29;20202;-62
2023/05/20 05:52:53;;;;;;;10.60;6.67;;;12.30;1.00;;;;;;4898562;29;20218;-62
2023/05/20 05:55:23;;;;;;;10.30;6.53;;;12.60;1.00;;;;;;4898179;29;20230;-62
2023/05/20 05:57:51;;;;;;;11.07;7.20;;;12.70;1.00;;;;;;4906132;29;20209;-62
2023/05/20 06:00:20;;;;;;;16.47;6.67;;;12.80;1.00;;;;;;4900232;29;20581;-62
2023/05/20 06:02:48;;;;;;;16.57;7.20;;;12.90;1.00;;;;;;4893868;29;20202;-62
2023/05/20 06:05:17;;;;;;;8.20;6.93;;;12.90;1.00;;;;;;4897162;29;20289;-62
2023/05/20 06:07:45;;;;;;;11.23;6.53;;;13.10;1.00;;;;;;4897206;29;20209;-62
2023/05/20 06:10:14;;;;;;;12.97;6.60;;;13.20;1.00;;;;;;4897852;29;20198;-62
2023/05/20 06:12:44;;;;;;;9.80;6.67;;;13.40;1.00;;;;;;4896756;29;20644;-62
2023/05/20 06:15:12;;;;;;;13.63;6.23;;;13.50;1.00;;;;;;4897646;29;20217;-62
2023/05/20 06:17:41;;;;;;;14.40;6.60;;;13.50;1.00;;;;;;4894841;29;20202;-62
2023/05/20 06:20:10;;;;;;;12.80;6.13;;;13.70;1.00;;;;;;4896849;29;20197;-62
2023/05/20 06:22:38;;;;;;;11.57;6.60;;;13.70;1.00;;;;;;4896678;29;20202;-62
2023/05/20 06:25:08;;;;;;;11.87;5.93;;;13.80;1.00;;;;;;4896590;29;20198;-62
2023/05/20 06:27:36;;;;;;;11.80;5.90;;;13.90;1.00;;;;;;4905209;29;20198;-62
2023/05/20 06:30:07;;;;;;;12.60;6.07;;;14.10;1.00;;;;;;4896695;29;20216;-62
2023/05/20 06:32:35;;;;;;;6.67;5.73;;;14.20;1.00;;;;;;4893730;29;20206;-62
2023/05/20 06:35:04;;;;;;;15.43;6.87;;;14.20;1.00;;;;;;4896602;29;20241;-63
2023/05/20 06:37:32;;;;;;;11.33;6.00;;;14.20;55.80;;;;;;4897173;29;20201;-62
2023/05/20 06:40:01;;;;;;;11.00;5.97;;;14.30;99.90;;;;;;4896255;29;20199;-62
2023/05/20 06:42:29;;;;;;;7.43;6.00;;;14.40;99.90;;;;;;4896570;29;20216;-62
2023/05/20 06:44:57;;;;;;;8.43;6.00;;;14.50;99.90;;;;;;4896707;29;20194;-62
2023/05/20 06:47:27;;;;;;;7.77;5.93;;;14.70;99.90;;;;;;4895810;29;20190;-62
2023/05/20 06:49:55;;;;;;;8.30;5.60;;;14.80;99.90;;;;;;4893935;29;20198;-62
2023/05/20 06:52:24;;;;;;;10.77;5.60;;;15.00;99.90;;;;;;4894146;29;20233;-62
2023/05/20 06:54:52;;;;;;;6.33;5.73;;;15.10;99.90;;;;;;4895176;29;20710;-62
2023/05/20 06:57:21;;;;;;;11.23;5.70;;;15.30;99.90;;;;;;4895383;29;20658;-62
2023/05/20 06:59:49;;;;;;;8.63;5.70;;;15.30;99.90;;;;;;4895081;29;20205;-62
2023/05/20 07:02:17;;;;;;;9.53;5.57;;;15.50;99.90;;;;;;4894945;29;20191;-62
2023/05/20 07:04:47;;;;;;;13.10;5.73;;;15.50;99.90;;;;;;4897386;29;20230;-62
2023/05/20 07:07:15;;;;;;;6.43;5.43;;;15.70;99.90;;;;;;4894413;29;20649;-63
2023/05/20 07:09:45;;;;;;;7.97;5.33;;;15.90;99.90;;;;;;4894972;29;20283;-63
2023/05/20 07:12:13;;;;;;;13.33;5.33;;;15.90;99.90;;;;;;4896213;29;20204;-63
2023/05/20 07:14:42;;;;;;;7.80;5.20;;;16.10;99.90;;;;;;4896820;29;20206;-63
2023/05/20 07:17:11;;;;;;;8.03;4.93;;;16.20;99.90;;;;;;4891938;29;20207;-63
2023/05/20 07:19:39;;;;;;;6.07;5.30;;;16.40;99.90;;;;;;4893537;29;20211;-63
2023/05/20 07:22:09;;;;;;;5.43;4.93;;;16.40;99.90;;;;;;4896689;29;20192;-63
2023/05/20 07:24:38;;;;;;;8.27;4.97;;;16.50;99.90;;;;;;4896793;29;20208;-63
2023/05/20 07:27:06;;;;;;;7.40;4.97;;;16.70;99.90;;;;;;4890189;29;20202;-63
2023/05/20 07:29:36;;;;;;;7.47;5.40;;;16.80;99.90;;;;;;4896590;29;20194;-63
2023/05/20 07:32:05;;;;;;;6.87;5.33;;;16.80;99.90;;;;;;4890559;29;20203;-63
2023/05/20 07:34:33;;;;;;;5.63;4.97;;;16.80;99.90;;;;;;4895857;29;20630;-63
2023/05/20 07:37:02;;;;;;;5.50;5.00;;;17.00;99.90;;;;;;4895991;29;20214;-63
2023/05/20 07:39:31;;;;;;;10.37;5.13;;;17.10;99.90;;;;;;4892075;29;20210;-63
2023/05/20 07:42:00;;;;;;;6.40;4.87;;;17.40;99.90;;;;;;4890767;29;20218;-63
2023/05/20 07:44:28;;;;;;;5.93;4.77;;;17.70;99.90;;;;;;4897553;29;20544;-64
2023/05/20 07:46:56;;;;;;;6.47;4.80;;;18.00;99.90;;;;;;4895281;29;20562;-64
2023/05/20 07:49:25;;;;;;;4.97;4.53;;;18.10;99.90;;;;;;4894019;29;20202;-63
2023/05/20 07:51:53;;;;;;;9.07;4.43;;;18.50;99.90;;;;;;4895338;29;20256;-64
2023/05/20 07:54:21;;;;;;;6.10;4.40;;;18.70;99.90;;;;;;4890346;29;20238;-64
2023/05/20 07:56:51;;;;;;;5.67;4.10;;;18.70;99.90;;;;;;4892267;29;20222;-64
2023/05/20 07:59:20;;;;;;;7.40;4.53;;;18.90;99.90;;;;;;4895068;29;21172;-64
2023/05/20 08:01:48;;;;;;;6.23;4.20;;;19.00;99.90;;;;;;4891459;29;20683;-64
2023/05/20 08:04:17;;;;;;;5.70;4.10;;;19.10;99.90;;;;;;4894815;29;20535;-64
2023/05/20 08:06:45;;;;;;;8.87;5.03;;;19.00;99.90;;;;;;4895133;29;20282;-64
2023/05/20 08:09:14;;;;;;;6.53;4.03;;;19.10;99.90;;;;;;4887687;29;20209;-64
2023/05/20 08:11:42;;;;;;;5.20;4.60;;;19.20;99.90;;;;;;4888683;29;20557;-65
2023/05/20 08:14:15;;;;;;;6.03;4.10;;;19.40;99.90;;;;;;4889047;29;20281;-64
2023/05/20 08:16:44;;;;;;;4.23;3.67;;;19.40;99.90;;;;;;4888637;29;20222;-64
2023/05/20 08:19:12;;;;;;;3.90;3.60;;;19.60;99.90;;;;;;4889020;29;20218;-65
2023/05/20 08:21:41;;;;;;;8.00;3.73;;;19.80;99.90;;;;;;4893156;29;20278;-65
2023/05/20 08:24:09;;;;;;;8.67;3.33;;;19.90;99.90;;;;;;4889219;29;20643;-65
2023/05/20 08:26:37;;;;;;;5.20;3.27;;;20.10;99.90;;;;;;4892718;29;20191;-64
2023/05/20 08:29:07;;;;;;;4.00;3.60;;;20.10;99.90;;;;;;4895985;29;20238;-65
2023/05/20 08:31:37;;;;;;;3.80;3.50;;;20.20;99.90;;;;;;4892551;29;20200;-65
2023/05/20 08:34:05;;;;;;;4.87;3.87;;;20.40;99.90;;;;;;4889405;29;20297;-65
2023/05/20 08:36:34;;;;;;;4.60;3.63;;;20.40;99.90;;;;;;4895114;29;20293;-65
2023/05/20 08:39:04;;;;;;;6.40;3.60;;;20.70;99.90;;;;;;4894170;29;20254;-65
2023/05/20 08:41:32;;;;;;;5.57;3.40;;;21.00;99.90;;;;;;4890487;29;20195;-65
2023/05/20 08:44:01;;;;;;;5.67;3.67;;;21.00;99.90;;;;;;4892078;29;20213;-65
2023/05/20 08:46:31;;;;;;;4.63;3.47;;;21.30;99.90;;;;;;4882929;29;20232;-65
2023/05/20 08:49:00;;;;;;;5.20;3.60;;;21.50;99.90;;;;;;4885932;29;20649;-65
2023/05/20 08:51:32;;;;;;;3.60;3.30;;;21.40;99.90;;;;;;4881777;29;20665;-65
2023/05/20 08:54:00;;;;;;;3.67;3.37;;;21.50;99.90;;;;;;4889543;29;20203;-64
2023/05/20 08:56:30;;;;;;;4.20;3.00;;;21.70;99.90;;;;;;4887537;29;20222;-65
2023/05/20 08:58:59;;;;;;;4.03;3.03;;;22.00;99.90;;;;;;4887461;29;20205;-65
2023/05/20 09:01:27;;;;;;;3.73;3.27;;;22.20;99.90;;;;;;4887598;29;20194;-65
2023/05/20 09:03:56;;;;;;;3.63;2.80;;;22.50;99.90;;;;;;4894153;29;20205;-65
2023/05/20 09:06:25;;;;;;;3.93;3.20;;;22.80;99.90;;;;;;4891437;29;20318;-65
2023/05/20 09:08:54;;;;;;;3.53;2.90;;;22.70;99.90;;;;;;4892021;29;20202;-65
2023/05/20 09:11:22;;;;;;;3.10;2.90;;;22.80;99.90;;;;;;4891428;29;20198;-65
2023/05/20 09:13:51;;;;;;;5.43;2.75;;;23.10;99.90;;;;;;4890314;29;20192;-65
2023/05/20 09:16:19;;;;;;;5.50;2.70;;;23.40;99.90;;;;;;4892879;29;20705;-65
2023/05/20 09:18:48;;;;;;;2.95;2.70;;;23.70;99.90;;;;;;4893108;29;20242;-66
2023/05/20 09:21:17;;;;;;;4.10;2.60;;;24.10;99.90;;;;;;4892126;29;20198;-66
2023/05/20 09:23:49;;;;;;;3.00;2.80;;;24.20;99.90;;;;;;4890270;29;20232;-66
2023/05/20 09:26:18;;;;;;;3.38;2.72;;;24.50;99.90;;;;;;4886737;29;20705;-66
2023/05/20 09:28:47;;;;;;;2.97;2.60;;;24.20;99.90;;;;;;4894049;29;20206;-65
2023/05/20 09:31:15;;;;;;;7.05;2.45;;;24.00;99.90;;;;;;4886132;29;20194;-66
2023/05/20 09:33:44;;;;;;;5.68;2.25;;;24.00;99.90;;;;;;4891634;29;20234;-65
2023/05/20 09:36:13;;;;;;;3.70;2.60;;;23.90;99.90;;;;;;4892192;29;20554;-65
2023/05/20 09:38:46;;;;;;;4.93;2.67;;;23.80;99.90;;;;;;4893239;29;20264;-66
2023/05/20 09:41:16;;;;;;;3.53;2.33;;;23.60;99.90;;;;;;4896998;29;20202;-65
2023/05/20 09:43:45;;;;;;;2.60;2.40;;;23.70;99.90;;;;;;4891616;29;20209;-65
2023/05/20 09:46:15;;;;;;;3.00;2.77;;;23.90;99.90;;;;;;4893395;29;20289;-66
2023/05/20 09:48:44;;;;;;;2.77;2.27;;;24.20;99.90;;;;;;4888185;29;20289;-65
2023/05/20 09:51:13;;;;;;;3.33;2.70;;;24.20;99.90;;;;;;4886902;29;20218;-65
2023/05/20 09:53:42;;;;;;;2.60;2.20;;;24.20;99.90;;;;;;4893403;29;20229;-65
2023/05/20 09:56:11;;;;;;;2.73;2.27;;;24.30;99.90;;;;;;4889029;29;20222;-65
2023/05/20 09:58:44;;;;;;;4.67;2.70;;;24.30;99.90;;;;;;4894352;29;20285;-65
2023/05/20 10:01:12;;;;;;;2.70;2.50;;;24.60;99.90;;;;;;4884057;29;20206;-65
2023/05/20 10:03:41;;;;;;;4.97;2.83;;;24.90;99.90;;;;;;4888818;29;20198;-65
2023/05/20 10:06:30;;;;;;;4.15;2.88;;;25.10;99.90;;;;;;4889585;29;20190;-65
2023/05/20 10:09:12;;;;;;;2.70;2.50;;;24.60;99.90;;;;;;4886305;29;20266;-65
2023/05/20 10:11:48;;;;;;;5.40;2.65;;;24.50;99.90;;;;;;4890192;29;20204;-65
2023/05/20 10:14:32;;;;;;;3.63;2.60;;;24.70;99.90;;;;;;4893454;29;20217;-65
2023/05/20 10:17:08;;;;;;;4.45;2.88;;;24.90;99.90;;;;;;4891743;29;20223;-65
2023/05/20 10:19:37;;;;;;;4.05;2.83;;;24.90;99.90;;;;;;4890654;29;20337;-65
2023/05/20 10:22:07;;;;;;;7.60;2.70;;;24.50;99.90;;;;;;4892266;29;20213;-65
2023/05/20 10:24:37;;;;;;;3.43;2.77;;;24.40;99.90;;;;;;4889300;29;20231;-67
2023/05/20 10:27:09;;;;;;;6.67;2.60;;;24.60;99.90;;;;;;4888742;29;20219;-65
2023/05/20 10:29:46;;;;;;;3.65;2.80;;;24.70;99.90;;;;;;4886208;29;20224;-65
2023/05/20 10:32:24;;;;;;;4.57;2.45;;;25.20;99.90;;;;;;4888833;29;20608;-65
2023/05/20 10:34:54;;;;;;;4.25;3.40;;;25.60;99.90;;;;;;4876710;29;20313;-65
2023/05/20 10:37:30;;;;;;;3.30;2.92;;;25.70;99.90;;;;;;4893547;29;20218;-65
2023/05/20 10:40:10;;;;;;;8.75;3.00;;;25.50;99.90;;;;;;4894688;29;20310;-65
2023/05/20 10:42:39;;;;;;;5.03;3.22;;;25.50;99.90;;;;;;4895307;29;22024;-65
2023/05/20 10:45:10;;;;;;;5.65;2.63;;;25.70;99.90;;;;;;4894504;29;20228;-65
2023/05/20 10:47:53;;;;;;;3.00;2.90;;;25.40;99.90;;;;;;4891447;29;20220;-66
2023/05/20 10:50:28;;;;;;;8.27;3.10;;;25.00;99.90;;;;;;4882522;29;20242;-65
2023/05/20 10:53:04;;;;;;;4.90;2.80;;;24.90;99.90;;;;;;4895041;29;20226;-65
2023/05/20 10:55:38;;;;;;;8.30;2.90;;;24.80;99.90;;;;;;4890612;29;20671;-64
2023/05/20 10:58:07;;;;;;;2.80;2.50;;;24.80;99.90;;;;;;4894361;29;20226;-65
2023/05/20 11:00:37;;;;;;;2.90;2.70;;;24.70;99.90;;;;;;4896120;29;20724;-65
2023/05/20 11:03:07;;;;;;;3.50;2.90;;;24.60;99.90;;;;;;4897126;29;20490;-65
2023/05/20 11:05:35;;;;;;;2.87;2.63;;;24.70;99.90;;;;;;4895217;29;20229;-65
2023/05/20 11:08:06;;;;;;;3.03;2.40;;;24.70;99.90;;;;;;4897216;29;20317;-65
2023/05/20 11:10:56;;;;;;;3.17;2.57;;;24.20;99.90;;;;;;4896222;29;20258;-65
2023/05/20 11:13:25;;;;;;;5.30;3.10;;;24.30;99.90;;;;;;4899598;29;20205;-66
2023/05/20 11:15:57;;;;;;;2.70;2.50;;;24.20;99.90;;;;;;4894258;29;20229;-65
2023/05/20 11:18:29;;;;;;;3.13;2.57;;;23.90;99.90;;;;;;4896667;29;20250;-65
2023/05/20 11:20:57;;;;;;;3.80;3.27;;;24.30;99.90;;;;;;4891520;29;20222;-65
2023/05/20 11:23:27;;;;;;;4.40;2.43;;;24.60;99.90;;;;;;4890939;29;20221;-65
2023/05/20 11:25:56;;;;;;;3.97;2.60;;;24.80;99.90;;;;;;4885036;29;20219;-65
2023/05/20 11:28:25;;;;;;;3.17;2.43;;;24.90;99.90;;;;;;4874912;29;20195;-65
2023/05/20 11:30:55;;;;;;;2.70;2.60;;;24.80;99.90;;;;;;4887736;29;20288;-66
2023/05/20 11:33:26;;;;;;;3.57;3.17;;;24.60;99.90;;;;;;4894046;29;20612;-66
2023/05/20 11:35:56;;;;;;;8.60;2.83;;;24.50;99.90;;;;;;4897987;29;20285;-66
2023/05/20 11:38:25;;;;;;;3.00;2.80;;;24.60;99.90;;;;;;4888789;29;20234;-66
2023/05/20 11:40:54;;;;;;;3.17;2.97;;;24.50;99.90;;;;;;4893787;29;20261;-66
2023/05/20 11:43:24;;;;;;;3.37;2.90;;;24.50;99.90;;;;;;4893085;29;20258;-66
2023/05/20 11:45:58;;;;;;;3.93;3.00;;;24.30;99.90;;;;;;4896427;29;20229;-66
2023/05/20 11:48:27;;;;;;;3.03;2.60;;;24.20;99.90;;;;;;4894773;29;20228;-66
2023/05/20 11:50:56;;;;;;;3.40;2.50;;;24.20;99.90;;;;;;4892168;29;20229;-67
2023/05/20 11:53:28;;;;;;;3.10;2.67;;;24.40;99.90;;;;;;4893911;29;20229;-67
2023/05/20 11:55:58;;;;;;;6.57;3.10;;;24.50;99.90;;;;;;4894724;29;20236;-67
2023/05/20 11:58:29;;;;;;;29.33;8.40;;;24.50;99.90;;;;;;4895280;29;20232;-67
2023/05/20 12:01:00;;;;;;;2.83;2.70;;;23.70;99.90;;;;;;4887951;29;20252;-68
2023/05/20 12:03:48;;;;;;;21.70;9.10;;;23.40;99.90;;;;;;4890176;29;20230;-68
2023/05/20 12:06:17;;;;;;;2.97;2.80;;;23.20;99.90;;;;;;4895977;29;20285;-69
2023/05/20 12:08:46;;;;;;;7.33;2.93;;;23.00;99.90;;;;;;4892671;29;20229;-69
2023/05/20 12:11:14;;;;;;;3.80;2.93;;;22.90;99.90;;;;;;4893661;29;20625;-63
2023/05/20 12:13:43;;;;;;;7.13;2.90;;;22.90;99.90;;;;;;4895557;29;20213;-68
2023/05/20 12:16:12;;;;;;;3.57;3.27;;;23.20;99.90;;;;;;4895295;29;20200;-65
2023/05/20 12:18:40;;;;;;;3.53;2.97;;;23.30;99.90;;;;;;4890635;29;20250;-66
2023/05/20 12:21:09;;;;;;;5.60;2.90;;;23.50;99.90;;;;;;4892096;29;20330;-63
2023/05/20 12:23:37;;;;;;;5.67;3.20;;;23.40;99.90;;;;;;4894651;29;20228;-63
2023/05/20 12:26:05;;;;;;;3.40;3.20;;;23.40;99.90;;;;;;4897153;29;20235;-63
2023/05/20 12:28:34;;;;;;;5.17;3.40;;;23.30;99.90;;;;;;4896623;29;20210;-63
2023/05/20 12:31:02;;;;;;;5.70;3.03;;;23.20;99.90;;;;;;4898333;29;20202;-63
2023/05/20 12:33:32;;;;;;;3.70;3.40;;;23.10;99.90;;;;;;4895640;23;20461;-60
2023/05/20 12:36:00;;;;;;;7.20;3.40;;;23.30;99.90;;;;;;4925814;29;20258;-60
2023/05/20 12:38:28;;;;;;;6.37;3.10;;;23.00;99.90;;;;;;4935355;28;20232;-61
2023/05/20 12:40:57;;;;;;;9.80;3.03;;;23.00;99.90;;;;;;4944738;28;20221;-61
2023/05/20 12:43:25;;;;;;;3.03;2.70;;;23.40;99.90;;;;;;4944415;28;20199;-61
2023/05/20 12:45:54;;;;;;;4.13;3.23;;;23.60;99.90;;;;;;4942302;28;20217;-61
2023/05/20 12:48:22;;;;;;;3.90;2.93;;;23.60;99.90;;;;;;4949249;28;20607;-60
2023/05/20 12:50:52;;;;;;;4.03;2.87;;;23.70;99.90;;;;;;4952265;28;20575;-60
2023/05/20 12:53:20;;;;;;;3.13;2.93;;;23.40;99.90;;;;;;4953576;28;20240;-60